Terminal Aerodrome Forecast
Issued by NWS Sterling, VA

Current Version | Previous Version | Graphics & Text | Print | Product List | Glossary On
Versions: 1 2 3 4 5 6 7 8 9 10 11 12 13 14 15 16 17 18 19 20 21 22 23 24 25 26 27 28 29
000
FTUS41 KLWX 231132
TAFIAD
TAF
KIAD 231132Z 2312/2418 00000KT 5SM BR SCT140 BKN250
     FM231230 28005KT P6SM BKN250
     FM231700 27005KT P6SM VCTS BKN050CB
     FM231900 23005KT P6SM -SHRA VCTS BKN040CB
     FM240000 VRB03KT P6SM BKN050
     FM241200 28004KT P6SM SCT250=

USA.gov is the U.S. government's official web portal to all federal, state and local government web resources and services.